KGNV 160353Z AUTO 00000KT 9SM CLR 24/22 A3016 RMK AO2 SLP211 T02390222